createdAt,value
2019-05-30T00:02:02.634Z,9.00
2019-05-30T00:08:47.875Z,8.90
2019-05-30T00:15:32.835Z,8.90
2019-05-30T00:22:17.931Z,8.90
2019-05-30T00:29:03.037Z,8.90
2019-05-30T00:35:48.238Z,9.00
2019-05-30T00:42:33.194Z,9.00
2019-05-30T00:49:18.068Z,9.10
2019-05-30T00:56:03.147Z,9.10
2019-05-30T01:02:48.532Z,9.00
2019-05-30T01:09:51.871Z,8.90
2019-05-30T01:16:37.208Z,8.90
2019-05-30T01:23:22.244Z,8.90
2019-05-30T01:30:08.981Z,8.80
2019-05-30T01:36:53.922Z,8.70
2019-05-30T01:43:39.268Z,8.60
2019-05-30T01:50:24.880Z,8.60
2019-05-30T01:57:09.839Z,8.50
2019-05-30T02:03:54.882Z,8.50
2019-05-30T02:10:39.830Z,8.30
2019-05-30T02:17:24.984Z,8.10
2019-05-30T02:24:12.015Z,8.00
2019-05-30T02:30:57.018Z,7.90
2019-05-30T02:37:42.055Z,7.80
2019-05-30T02:44:27.023Z,7.80
2019-05-30T02:51:12.644Z,7.70
2019-05-30T02:57:58.043Z,7.80
2019-05-30T03:04:43.129Z,7.80
2019-05-30T03:11:28.519Z,7.80
2019-05-30T03:18:14.949Z,7.70
2019-05-30T03:25:03.131Z,7.80
2019-05-30T03:31:49.167Z,7.90
2019-05-30T03:38:34.273Z,7.90
2019-05-30T03:45:21.849Z,8.00
2019-05-30T03:52:08.161Z,8.10
2019-05-30T03:58:56.784Z,8.10
2019-05-30T04:05:54.369Z,8.30
2019-05-30T04:13:14.549Z,8.30
2019-05-30T04:19:59.298Z,8.50
2019-05-30T04:26:44.244Z,8.70
2019-05-30T04:33:32.954Z,8.80
2019-05-30T04:40:17.998Z,8.90
2019-05-30T04:47:04.058Z,9.00
2019-05-30T04:53:48.958Z,9.20
2019-05-30T05:00:34.141Z,9.50
2019-05-30T05:07:19.882Z,14.60
2019-05-30T05:14:04.881Z,20.20
2019-05-30T05:20:49.950Z,22.90
2019-05-30T05:27:35.260Z,23.90
2019-05-30T05:34:20.677Z,26.40
2019-05-30T05:41:06.020Z,26.80
2019-05-30T05:47:51.107Z,26.10
2019-05-30T05:54:36.124Z,25.40
2019-05-30T06:01:21.476Z,26.50
2019-05-30T06:08:07.628Z,29.50
2019-05-30T06:14:52.803Z,29.10
2019-05-30T06:21:51.035Z,28.00
2019-05-30T06:28:24.693Z,29.40
2019-05-30T06:35:10.265Z,28.00
2019-05-30T06:41:55.418Z,27.00
2019-05-30T06:48:40.377Z,26.90
2019-05-30T06:55:25.334Z,30.00
2019-05-30T07:02:11.441Z,33.30
2019-05-30T07:08:56.501Z,32.30
2019-05-30T07:15:41.532Z,32.30
2019-05-30T07:22:27.632Z,30.60
2019-05-30T07:29:12.649Z,32.70
2019-05-30T07:35:57.624Z,34.00
2019-05-30T07:42:43.451Z,35.40
2019-05-30T07:49:28.391Z,34.50
2019-05-30T07:56:13.341Z,36.40
2019-05-30T08:02:58.287Z,37.80
2019-05-30T08:09:43.259Z,38.60
2019-05-30T08:16:29.152Z,39.50
2019-05-30T08:23:14.240Z,39.70
2019-05-30T08:29:59.299Z,37.80
2019-05-30T08:36:44.364Z,38.40
2019-05-30T08:43:29.601Z,40.40
2019-05-30T08:50:14.840Z,40.20
2019-05-30T08:56:59.707Z,39.20
2019-05-30T09:03:44.670Z,37.90
2019-05-30T09:10:29.675Z,38.00
2019-05-30T09:17:14.732Z,36.80
2019-05-30T09:24:01.393Z,36.50
2019-05-30T09:30:46.680Z,36.50
2019-05-30T09:37:32.859Z,35.50
2019-05-30T09:44:17.889Z,35.40
2019-05-30T09:51:02.903Z,35.10
2019-05-30T09:57:48.104Z,36.70
2019-05-30T10:04:33.012Z,34.20
2019-05-30T10:11:18.213Z,32.80
2019-05-30T10:18:03.211Z,32.10
2019-05-30T10:24:49.104Z,30.30
2019-05-30T10:31:34.382Z,30.60
2019-05-30T10:38:20.723Z,33.20
2019-05-30T10:45:08.697Z,35.50
2019-05-30T10:51:57.519Z,32.60
2019-05-30T10:58:40.301Z,28.30
2019-05-30T11:05:25.666Z,25.70
2019-05-30T11:12:11.009Z,23.90
2019-05-30T11:18:56.206Z,23.10
2019-05-30T11:25:42.227Z,22.50
2019-05-30T11:32:27.289Z,22.70
2019-05-30T11:39:13.051Z,23.40
2019-05-30T11:45:57.997Z,23.30
2019-05-30T11:52:43.608Z,23.50
2019-05-30T11:59:28.613Z,23.20
2019-05-30T12:06:14.220Z,22.50
2019-05-30T12:13:01.627Z,22.10
2019-05-30T12:19:47.584Z,21.80
2019-05-30T12:26:33.935Z,22.10
2019-05-30T12:33:19.138Z,22.90
2019-05-30T12:40:07.521Z,23.00
2019-05-30T12:46:53.374Z,23.40
2019-05-30T12:53:38.514Z,23.20
2019-05-30T13:00:29.823Z,23.20
2019-05-30T13:07:14.734Z,23.30
2019-05-30T13:14:00.672Z,23.70
2019-05-30T13:20:45.852Z,23.60
2019-05-30T13:27:30.881Z,23.20
2019-05-30T13:34:15.832Z,23.10
2019-05-30T13:41:01.923Z,23.60
2019-05-30T13:47:48.348Z,23.20
2019-05-30T13:54:35.268Z,23.30
2019-05-30T14:01:20.205Z,23.00
2019-05-30T14:08:09.235Z,23.40
2019-05-30T14:14:52.058Z,23.00
2019-05-30T14:21:37.136Z,23.30
2019-05-30T14:28:22.612Z,22.90
2019-05-30T14:35:08.578Z,23.60
2019-05-30T14:41:53.645Z,24.30
2019-05-30T14:48:38.923Z,24.70
2019-05-30T14:55:23.976Z,24.50
2019-05-30T15:02:09.182Z,23.70
2019-05-30T15:08:54.673Z,23.40
2019-05-30T15:15:39.739Z,22.80
2019-05-30T15:22:24.680Z,22.90
2019-05-30T15:29:10.055Z,23.20
2019-05-30T15:35:56.447Z,23.60
2019-05-30T15:42:41.438Z,23.90
2019-05-30T15:49:26.473Z,24.40
2019-05-30T15:56:11.709Z,24.50
2019-05-30T16:02:56.784Z,24.40
2019-05-30T16:09:47.185Z,24.50
2019-05-30T16:16:39.505Z,24.40
2019-05-30T16:23:16.322Z,24.30
2019-05-30T16:30:02.732Z,23.70
2019-05-30T16:36:49.527Z,24.30
2019-05-30T16:43:34.536Z,23.90
2019-05-30T16:50:23.352Z,23.90
2019-05-30T16:57:08.386Z,24.00
2019-05-30T17:03:54.491Z,23.80
2019-05-30T17:10:39.515Z,23.10
2019-05-30T17:17:24.470Z,23.00
2019-05-30T17:24:09.432Z,22.30
2019-05-30T17:30:54.607Z,22.20
2019-05-30T17:37:39.686Z,22.10
2019-05-30T17:52:28.355Z,22.00
2019-05-30T17:59:14.406Z,21.90
2019-05-30T18:05:59.425Z,21.60
2019-05-30T18:13:20.989Z,21.40
2019-05-30T18:28:09.068Z,20.80
2019-05-30T18:34:57.225Z,20.40
2019-05-30T18:41:40.613Z,20.20
2019-05-30T18:48:25.705Z,20.00
2019-05-30T18:55:11.416Z,19.90
2019-05-30T19:01:56.358Z,19.90
2019-05-30T19:08:41.316Z,19.80
2019-05-30T19:15:29.314Z,19.70
2019-05-30T19:22:13.068Z,19.60
2019-05-30T19:28:57.962Z,19.30
2019-05-30T19:35:43.940Z,19.20
2019-05-30T19:50:32.538Z,19.10
2019-05-30T19:57:18.090Z,19.10
2019-05-30T20:04:03.091Z,19.00
2019-05-30T20:10:47.946Z,18.90
2019-05-30T20:17:33.380Z,18.90
2019-05-30T20:24:18.342Z,18.80
2019-05-30T20:31:03.207Z,18.70
2019-05-30T20:37:48.218Z,18.70
2019-05-30T20:44:33.140Z,18.50
2019-05-30T20:51:21.243Z,18.50
2019-05-30T20:58:04.799Z,18.50
2019-05-30T21:04:49.802Z,18.40
2019-05-30T21:11:36.094Z,18.30
2019-05-30T21:18:21.192Z,18.20
2019-05-30T21:25:07.852Z,18.10
2019-05-30T21:31:52.834Z,18.10
2019-05-30T21:38:37.893Z,18.00
2019-05-30T21:45:23.115Z,18.00
2019-05-30T21:52:07.971Z,17.90
2019-05-30T21:58:52.948Z,17.80
2019-05-30T22:05:37.888Z,17.80
2019-05-30T22:12:22.883Z,17.80
2019-05-30T22:19:07.772Z,17.70
2019-05-30T22:25:53.039Z,17.70
2019-05-30T22:32:38.603Z,17.70
2019-05-30T22:39:23.587Z,17.70
2019-05-30T22:46:08.596Z,17.60
2019-05-30T22:52:53.518Z,17.50
2019-05-30T23:15:30.520Z,17.40
2019-05-30T23:22:15.375Z,17.50
2019-05-30T23:29:00.599Z,17.50
2019-05-30T23:35:45.459Z,17.50
2019-05-30T23:50:33.991Z,17.50
2019-05-30T23:57:18.850Z,17.40
